createdAt,value
2018-05-27T00:02:20.985Z,97333
2018-05-27T00:04:53.749Z,97337
2018-05-27T00:07:35.639Z,97323
2018-05-27T00:10:17.492Z,97320
2018-05-27T00:12:51.524Z,97311
2018-05-27T00:15:24.674Z,97302
2018-05-27T00:18:12.323Z,97297
2018-05-27T00:20:47.692Z,97299
2018-05-27T00:23:16.029Z,97300
2018-05-27T00:26:03.902Z,97306
2018-05-27T00:28:36.354Z,97302
2018-05-27T00:31:04.677Z,97304
2018-05-27T00:33:37.429Z,97297
2018-05-27T00:36:05.866Z,97290
2018-05-27T00:38:37.921Z,97288
2018-05-27T00:41:07.065Z,97291
2018-05-27T00:43:35.356Z,97281
2018-05-27T00:46:05.594Z,97287
2018-05-27T00:48:37.665Z,97290
2018-05-27T00:51:09.292Z,97289
2018-05-27T00:53:55.815Z,97290
2018-05-27T00:56:24.926Z,97295
2018-05-27T00:58:56.975Z,97294
2018-05-27T01:01:29.652Z,97293
2018-05-27T01:04:00.708Z,97292
2018-05-27T01:06:41.686Z,97297
2018-05-27T01:09:14.971Z,97300
2018-05-27T01:11:45.297Z,97299
2018-05-27T01:14:19.418Z,97296
2018-05-27T01:16:49.719Z,97297
2018-05-27T01:19:25.466Z,97293
2018-05-27T01:21:53.735Z,97288
2018-05-27T01:24:23.902Z,97285
2018-05-27T01:26:53.379Z,97284
2018-05-27T01:29:21.725Z,97281
2018-05-27T01:32:09.002Z,97280
2018-05-27T01:34:41.849Z,97279
2018-05-27T01:37:12.977Z,97280
2018-05-27T01:39:41.334Z,97278
2018-05-27T01:42:10.671Z,97276
2018-05-27T01:44:44.357Z,97274
2018-05-27T01:47:15.294Z,97268
2018-05-27T01:49:47.164Z,97268
2018-05-27T01:52:19.771Z,97261
2018-05-27T01:54:49.934Z,97253
2018-05-27T01:57:21.249Z,97250
2018-05-27T01:59:52.280Z,97241
2018-05-27T02:02:24.016Z,97236
2018-05-27T02:04:58.687Z,97234
2018-05-27T02:07:37.741Z,97240
2018-05-27T02:10:14.345Z,97243
2018-05-27T02:12:49.386Z,97244
2018-05-27T02:15:30.352Z,97246
2018-05-27T02:18:10.668Z,97242
2018-05-27T02:20:41.872Z,97241
2018-05-27T02:23:19.061Z,97236
2018-05-27T02:25:53.281Z,97235
2018-05-27T02:28:22.698Z,97235
2018-05-27T02:30:56.814Z,97234
2018-05-27T02:33:28.544Z,97230
2018-05-27T02:36:00.579Z,97236
2018-05-27T02:38:33.869Z,97234
2018-05-27T02:44:14.776Z,97232
2018-05-27T02:46:54.503Z,97225
2018-05-27T02:49:24.234Z,97218
2018-05-27T02:52:01.745Z,97221
2018-05-27T02:54:48.527Z,97213
2018-05-27T02:57:32.811Z,97216
2018-05-27T03:00:01.735Z,97211
2018-05-27T03:02:43.441Z,97209
2018-05-27T03:05:14.471Z,97204
2018-05-27T03:08:01.858Z,97198
2018-05-27T03:10:37.913Z,97198
2018-05-27T03:13:07.343Z,97200
2018-05-27T03:15:37.598Z,97205
2018-05-27T03:18:12.405Z,97205
2018-05-27T03:20:46.004Z,97199
2018-05-27T03:23:15.219Z,97199
2018-05-27T03:25:48.142Z,97196
2018-05-27T03:28:26.707Z,97203
2018-05-27T03:31:00.646Z,97205
2018-05-27T03:33:31.998Z,97203
2018-05-27T03:36:04.077Z,97204
2018-05-27T03:38:49.520Z,97209
2018-05-27T03:41:33.265Z,97210
2018-05-27T03:44:02.647Z,97214
2018-05-27T03:46:36.754Z,97215
2018-05-27T03:49:11.029Z,97211
2018-05-27T03:51:43.218Z,97209
2018-05-27T03:54:15.207Z,97210
2018-05-27T03:56:48.890Z,97206
2018-05-27T03:59:23.065Z,97203
2018-05-27T04:02:05.816Z,97208
2018-05-27T04:04:58.361Z,97206
2018-05-27T04:07:46.085Z,97207
2018-05-27T04:10:16.778Z,97202
2018-05-27T04:12:46.656Z,97208
2018-05-27T04:15:19.993Z,97210
2018-05-27T04:17:50.905Z,97207
2018-05-27T04:20:20.235Z,97214
2018-05-27T04:22:56.051Z,97217
2018-05-27T04:25:28.825Z,97216
2018-05-27T04:27:59.090Z,97215
2018-05-27T04:30:33.494Z,97212
2018-05-27T04:33:06.023Z,97209
2018-05-27T04:35:38.346Z,97204
2018-05-27T04:38:16.983Z,97205
2018-05-27T04:40:45.414Z,97204
2018-05-27T04:43:22.840Z,97206
2018-05-27T04:45:52.211Z,97207
2018-05-27T04:48:28.919Z,97207
2018-05-27T04:50:58.293Z,97206
2018-05-27T04:53:29.246Z,97197
2018-05-27T04:56:00.199Z,97196
2018-05-27T04:58:30.661Z,97200
2018-05-27T05:01:15.963Z,97191
2018-05-27T05:03:49.111Z,97192
2018-05-27T05:06:20.939Z,97195
2018-05-27T05:08:52.573Z,97196
2018-05-27T05:11:26.275Z,97199
2018-05-27T05:14:02.849Z,97199
2018-05-27T05:16:31.928Z,97205
2018-05-27T05:19:02.579Z,97207
2018-05-27T05:21:41.048Z,97210
2018-05-27T05:24:12.953Z,97200
2018-05-27T05:26:53.943Z,97197
2018-05-27T05:29:26.420Z,97204
2018-05-27T05:32:07.618Z,97200
2018-05-27T05:35:03.055Z,97198
2018-05-27T05:37:35.569Z,97202
2018-05-27T05:40:06.389Z,97207
2018-05-27T05:42:41.214Z,97211
2018-05-27T05:45:23.191Z,97219
2018-05-27T05:48:06.245Z,97222
2018-05-27T05:50:43.577Z,97230
2018-05-27T05:53:26.913Z,97232
2018-05-27T05:55:55.468Z,97244
2018-05-27T05:58:33.026Z,97242
2018-05-27T06:01:15.768Z,97248
2018-05-27T06:03:45.266Z,97256
2018-05-27T06:06:34.647Z,97250
2018-05-27T06:09:08.822Z,97255
2018-05-27T06:11:38.123Z,97259
2018-05-27T06:14:07.080Z,97258
2018-05-27T06:16:35.665Z,97266
2018-05-27T06:19:09.437Z,97265
2018-05-27T06:21:40.491Z,97265
2018-05-27T06:24:11.059Z,97263
2018-05-27T06:26:40.546Z,97262
2018-05-27T06:29:08.871Z,97258
2018-05-27T06:31:46.260Z,97265
2018-05-27T06:34:14.631Z,97270
2018-05-27T06:36:45.013Z,97274
2018-05-27T06:39:13.915Z,97274
2018-05-27T06:41:53.347Z,97274
2018-05-27T06:44:21.776Z,97280
2018-05-27T06:46:51.060Z,97283
2018-05-27T06:49:45.138Z,97290
2018-05-27T06:52:13.431Z,97285
2018-05-27T06:54:47.795Z,97283
2018-05-27T06:57:16.838Z,97285
2018-05-27T06:59:52.083Z,97287
2018-05-27T07:02:20.581Z,97290
2018-05-27T07:04:49.887Z,97296
2018-05-27T07:07:18.150Z,97302
2018-05-27T07:09:47.443Z,97307
2018-05-27T07:12:17.096Z,97307
2018-05-27T07:14:48.331Z,97309
2018-05-27T07:17:18.555Z,97310
2018-05-27T07:19:47.669Z,97318
2018-05-27T07:22:16.019Z,97317
2018-05-27T07:24:45.095Z,97320
2018-05-27T07:27:19.219Z,97329
2018-05-27T07:29:52.078Z,97327
2018-05-27T07:32:21.398Z,97327
2018-05-27T07:35:08.856Z,97324
2018-05-27T07:37:42.292Z,97327
2018-05-27T07:40:13.959Z,97323
2018-05-27T07:42:50.483Z,97321
2018-05-27T07:45:23.312Z,97325
2018-05-27T07:48:01.825Z,97333
2018-05-27T07:50:30.168Z,97335
2018-05-27T07:55:38.631Z,97327
2018-05-27T07:58:14.338Z,97323
2018-05-27T08:00:48.305Z,97321
2018-05-27T08:03:24.877Z,97324
2018-05-27T08:05:54.164Z,97321
2018-05-27T08:08:27.033Z,97324
2018-05-27T08:11:01.532Z,97328
2018-05-27T08:13:30.679Z,97322
2018-05-27T08:16:03.269Z,97320
2018-05-27T08:18:41.877Z,97325
2018-05-27T08:21:11.232Z,97323
2018-05-27T08:23:42.950Z,97323
2018-05-27T08:26:12.659Z,97324
2018-05-27T08:28:54.194Z,97326
2018-05-27T08:31:31.477Z,97331
2018-05-27T08:34:06.585Z,97330
2018-05-27T08:36:39.152Z,97329
2018-05-27T08:39:13.304Z,97334
2018-05-27T08:41:55.159Z,97333
2018-05-27T08:44:40.586Z,97335
2018-05-27T08:47:17.374Z,97343
2018-05-27T08:49:52.543Z,97336
2018-05-27T08:55:43.928Z,97345
2018-05-27T08:58:15.709Z,97342
2018-05-27T09:03:40.092Z,97347
2018-05-27T09:06:12.278Z,97341
2018-05-27T09:08:44.079Z,97343
2018-05-27T09:11:13.496Z,97335
2018-05-27T09:13:47.827Z,97339
2018-05-27T09:16:16.913Z,97336
2018-05-27T09:19:01.290Z,97333
2018-05-27T09:21:41.270Z,97333
2018-05-27T09:24:23.738Z,97333
2018-05-27T09:27:09.543Z,97338
2018-05-27T09:29:55.381Z,97333
2018-05-27T09:32:37.302Z,97336
2018-05-27T09:35:06.375Z,97334
2018-05-27T09:37:46.340Z,97337
2018-05-27T09:40:15.454Z,97324
2018-05-27T09:42:53.661Z,97330
2018-05-27T09:45:34.601Z,97332
2018-05-27T09:48:03.005Z,97323
2018-05-27T09:50:32.264Z,97321
2018-05-27T09:53:06.458Z,97322
2018-05-27T09:55:42.335Z,97319
2018-05-27T09:58:12.308Z,97316
2018-05-27T10:00:45.991Z,97312
2018-05-27T10:03:16.677Z,97310
2018-05-27T10:05:44.970Z,97305
2018-05-27T10:08:32.934Z,97305
2018-05-27T10:11:04.852Z,97300
2018-05-27T10:13:50.172Z,97302
2018-05-27T10:16:19.650Z,97289
2018-05-27T10:18:52.825Z,97291
2018-05-27T10:21:29.819Z,97295
2018-05-27T10:23:59.287Z,97294
2018-05-27T10:26:28.632Z,97292
2018-05-27T10:29:02.268Z,97289
2018-05-27T10:31:41.784Z,97289
2018-05-27T10:34:11.097Z,97279
2018-05-27T10:36:41.455Z,97278
2018-05-27T10:39:21.070Z,97271
2018-05-27T10:42:01.645Z,97270
2018-05-27T10:44:31.223Z,97264
2018-05-27T10:53:58.758Z,97246
2018-05-27T10:56:33.423Z,97243
2018-05-27T10:59:03.953Z,97237
2018-05-27T11:01:33.281Z,97233
2018-05-27T11:04:01.555Z,97235
2018-05-27T11:06:29.803Z,97229
2018-05-27T11:08:59.119Z,97234
2018-05-27T11:11:27.564Z,97237
2018-05-27T11:14:00.952Z,97236
2018-05-27T11:16:32.707Z,97234
2018-05-27T11:19:07.055Z,97240
2018-05-27T11:21:35.377Z,97237
2018-05-27T11:24:04.608Z,97241
2018-05-27T11:26:33.023Z,97237
2018-05-27T11:29:01.319Z,97233
2018-05-27T11:31:30.418Z,97226
2018-05-27T11:33:58.707Z,97225
2018-05-27T11:36:27.807Z,97214
2018-05-27T11:39:00.952Z,97207
2018-05-27T11:41:31.299Z,97207
2018-05-27T11:44:04.261Z,97193
2018-05-27T11:46:36.564Z,97190
2018-05-27T11:49:05.138Z,97184
2018-05-27T11:51:36.941Z,97176
2018-05-27T11:54:09.892Z,97179
2018-05-27T11:56:39.979Z,97177
2018-05-27T11:59:16.116Z,97170
2018-05-27T12:01:45.412Z,97169
2018-05-27T12:04:17.951Z,97166
2018-05-27T12:06:46.264Z,97157
2018-05-27T12:09:38.775Z,97157
2018-05-27T12:12:08.915Z,97158
2018-05-27T12:14:41.126Z,97164
2018-05-27T12:17:09.428Z,97167
2018-05-27T12:19:43.261Z,97160
2018-05-27T12:22:17.775Z,97156
2018-05-27T12:24:47.896Z,97154
2018-05-27T12:27:23.487Z,97147
2018-05-27T12:29:56.552Z,97147
2018-05-27T12:32:29.718Z,97149
2018-05-27T12:35:00.598Z,97146
2018-05-27T12:37:42.616Z,97134
2018-05-27T12:40:19.494Z,97133
2018-05-27T12:42:56.771Z,97130
2018-05-27T12:45:27.035Z,97125
2018-05-27T12:48:06.787Z,97122
2018-05-27T12:50:41.707Z,97126
2018-05-27T12:53:11.086Z,97121
2018-05-27T12:58:23.006Z,97126
2018-05-27T13:00:52.717Z,97127
2018-05-27T13:03:23.320Z,97137
2018-05-27T13:05:53.992Z,97135
2018-05-27T13:08:30.811Z,97131
2018-05-27T13:11:03.856Z,97130
2018-05-27T13:13:38.811Z,97132
2018-05-27T13:16:12.491Z,97127
2018-05-27T13:18:43.735Z,97113
2018-05-27T13:21:15.095Z,97109
2018-05-27T13:23:46.882Z,97108
2018-05-27T13:26:34.423Z,97115
2018-05-27T13:29:22.186Z,97114
2018-05-27T13:31:56.035Z,97111
2018-05-27T13:34:29.338Z,97107
2018-05-27T13:36:59.772Z,97111
2018-05-27T13:39:29.324Z,97108
2018-05-27T13:42:04.895Z,97113
2018-05-27T13:44:37.115Z,97107
2018-05-27T13:47:13.976Z,97099
2018-05-27T13:49:53.411Z,97094
2018-05-27T13:52:29.347Z,97096
2018-05-27T13:55:00.192Z,97092
2018-05-27T13:57:46.773Z,97098
2018-05-27T14:00:22.540Z,97092
2018-05-27T14:02:56.869Z,97090
2018-05-27T14:05:31.187Z,97090
2018-05-27T14:08:03.120Z,97086
2018-05-27T14:10:38.744Z,97095
2018-05-27T14:13:08.055Z,97090
2018-05-27T14:15:36.358Z,97092
2018-05-27T14:18:04.682Z,97092
2018-05-27T14:20:37.804Z,97090
2018-05-27T14:23:10.808Z,97085
2018-05-27T14:25:47.259Z,97083
2018-05-27T14:28:19.473Z,97084
2018-05-27T14:30:48.549Z,97083
2018-05-27T14:33:16.940Z,97076
2018-05-27T14:35:49.613Z,97070
2018-05-27T14:38:44.037Z,97066
2018-05-27T14:41:17.512Z,97061
2018-05-27T14:43:48.553Z,97065
2018-05-27T14:46:24.817Z,97056
2018-05-27T14:49:03.404Z,97048
2018-05-27T14:51:33.345Z,97046
2018-05-27T14:54:07.737Z,97043
2018-05-27T14:56:36.296Z,97041
2018-05-27T14:59:17.078Z,97037
2018-05-27T15:01:52.227Z,97026
2018-05-27T15:04:28.143Z,97029
2018-05-27T15:06:56.486Z,97021
2018-05-27T15:09:25.832Z,97018
2018-05-27T15:11:59.948Z,97015
2018-05-27T15:14:32.013Z,96998
2018-05-27T15:17:04.051Z,96994
2018-05-27T15:19:32.405Z,96989
2018-05-27T15:22:01.738Z,96988
2018-05-27T15:24:30.136Z,96986
2018-05-27T15:27:02.597Z,96984
2018-05-27T15:29:38.353Z,96978
2018-05-27T15:32:06.903Z,96984
2018-05-27T15:34:40.632Z,96979
2018-05-27T15:37:09.217Z,96972
2018-05-27T15:39:39.564Z,96982
2018-05-27T15:42:22.502Z,96981
2018-05-27T15:44:50.788Z,96982
2018-05-27T15:47:19.045Z,96981
2018-05-27T15:49:59.891Z,96984
2018-05-27T15:52:29.114Z,96982
2018-05-27T15:55:08.863Z,96981
2018-05-27T15:57:37.275Z,96972
2018-05-27T16:00:05.531Z,96978
2018-05-27T16:02:43.280Z,96976
2018-05-27T16:05:11.643Z,96977
2018-05-27T16:07:42.824Z,96975
2018-05-27T16:10:15.460Z,96974
2018-05-27T16:12:57.654Z,96974
2018-05-27T16:15:52.455Z,96975
2018-05-27T16:18:28.955Z,96972
2018-05-27T16:21:00.314Z,96967
2018-05-27T16:23:29.814Z,96969
2018-05-27T16:26:00.798Z,96972
2018-05-27T16:28:36.583Z,96964
2018-05-27T16:31:09.823Z,96967
2018-05-27T16:33:38.321Z,96962
2018-05-27T16:36:18.162Z,96954
2018-05-27T16:38:55.326Z,96959
2018-05-27T16:41:31.051Z,96959
2018-05-27T16:44:03.669Z,96957
2018-05-27T16:46:37.433Z,96956
2018-05-27T16:49:08.851Z,96960
2018-05-27T16:51:37.124Z,96949
2018-05-27T16:54:26.820Z,96953
2018-05-27T16:57:06.259Z,96946
2018-05-27T16:59:40.091Z,96943
2018-05-27T17:02:28.224Z,96942
2018-05-27T17:04:58.745Z,96932
2018-05-27T17:07:32.621Z,96929
2018-05-27T17:10:08.835Z,96929
2018-05-27T17:12:42.859Z,96928
2018-05-27T17:15:26.513Z,96933
2018-05-27T17:17:59.669Z,96939
2018-05-27T17:20:45.424Z,96939
2018-05-27T17:23:16.178Z,96946
2018-05-27T17:26:08.503Z,96946
2018-05-27T17:28:49.307Z,96941
2018-05-27T17:31:44.101Z,96936
2018-05-27T17:34:17.747Z,96940
2018-05-27T17:36:52.711Z,96944
2018-05-27T17:39:20.950Z,96938
2018-05-27T17:44:41.522Z,96930
2018-05-27T17:47:10.845Z,96933
2018-05-27T17:49:40.960Z,96934
2018-05-27T17:52:10.224Z,96928
2018-05-27T17:54:40.505Z,96924
2018-05-27T17:57:12.595Z,96924
2018-05-27T17:59:49.188Z,96921
2018-05-27T18:02:28.354Z,96925
2018-05-27T18:04:58.999Z,96920
2018-05-27T18:07:30.376Z,96923
2018-05-27T18:10:01.397Z,96927
2018-05-27T18:12:38.378Z,96926
2018-05-27T18:15:08.321Z,96932
2018-05-27T18:17:40.781Z,96933
2018-05-27T18:20:09.187Z,96931
2018-05-27T18:22:42.868Z,96933
2018-05-27T18:25:32.652Z,96928
2018-05-27T18:28:07.513Z,96929
2018-05-27T18:30:38.539Z,96926
2018-05-27T18:33:08.046Z,96937
2018-05-27T18:35:46.939Z,96938
2018-05-27T18:38:17.209Z,96936
2018-05-27T18:40:46.368Z,96931
2018-05-27T18:43:16.883Z,96933
2018-05-27T18:45:45.325Z,96946
2018-05-27T18:48:14.384Z,96942
2018-05-27T18:50:49.640Z,96949
2018-05-27T18:53:18.738Z,96949
2018-05-27T18:55:47.895Z,96958
2018-05-27T18:58:20.027Z,96959
2018-05-27T19:00:51.763Z,96965
2018-05-27T19:03:22.833Z,96964
2018-05-27T19:05:52.074Z,96971
2018-05-27T19:08:26.800Z,96972
2018-05-27T19:10:55.243Z,96978
2018-05-27T19:13:27.565Z,96985
2018-05-27T19:16:09.730Z,96993
2018-05-27T19:18:40.922Z,96992
2018-05-27T19:21:22.058Z,96993
2018-05-27T19:23:50.408Z,97008
2018-05-27T19:26:24.574Z,97009
2018-05-27T19:28:53.883Z,97012
2018-05-27T19:31:40.792Z,97014
2018-05-27T19:34:12.453Z,97007
2018-05-27T19:36:40.717Z,97008
2018-05-27T19:39:12.162Z,97009
2018-05-27T19:41:43.960Z,97015
2018-05-27T19:44:14.984Z,97012
2018-05-27T19:46:43.528Z,97012
2018-05-27T19:49:11.915Z,97011
2018-05-27T19:51:40.223Z,97011
2018-05-27T19:54:09.182Z,97012
2018-05-27T19:56:38.522Z,97015
2018-05-27T19:59:09.545Z,97017
2018-05-27T20:01:39.119Z,97027
2018-05-27T20:04:12.207Z,97030
2018-05-27T20:06:50.636Z,97024
2018-05-27T20:09:22.605Z,97024
2018-05-27T20:11:51.913Z,97026
2018-05-27T20:14:20.190Z,97023
2018-05-27T20:16:54.239Z,97031
2018-05-27T20:19:22.609Z,97030
2018-05-27T20:21:55.241Z,97032
2018-05-27T20:24:28.156Z,97028
2018-05-27T20:26:57.611Z,97032
2018-05-27T20:29:29.819Z,97032
2018-05-27T20:31:59.160Z,97025
2018-05-27T20:34:33.008Z,97030
2018-05-27T20:37:03.350Z,97022
2018-05-27T20:39:32.902Z,97022
2018-05-27T20:42:09.728Z,97028
2018-05-27T20:44:45.678Z,97027
2018-05-27T20:47:27.442Z,97026
2018-05-27T20:49:55.795Z,97030
2018-05-27T20:52:31.426Z,97028
2018-05-27T20:55:06.522Z,97030
2018-05-27T20:57:37.052Z,97032
2018-05-27T21:00:07.798Z,97033
2018-05-27T21:02:46.770Z,97034
2018-05-27T21:05:23.248Z,97031
2018-05-27T21:07:54.233Z,97026
2018-05-27T21:10:23.900Z,97032
2018-05-27T21:13:05.733Z,97030
2018-05-27T21:15:41.214Z,97036
2018-05-27T21:18:29.727Z,97031
2018-05-27T21:21:13.461Z,97036
2018-05-27T21:23:43.081Z,97038
2018-05-27T21:26:16.710Z,97044
2018-05-27T21:28:56.426Z,97044
2018-05-27T21:31:26.754Z,97040
2018-05-27T21:34:07.988Z,97038
2018-05-27T21:36:43.943Z,97038
2018-05-27T21:39:14.728Z,97037
2018-05-27T21:41:56.176Z,97032
2018-05-27T21:44:31.707Z,97035
2018-05-27T21:47:01.551Z,97029
2018-05-27T21:49:34.323Z,97028
2018-05-27T21:52:13.619Z,97032
2018-05-27T21:54:45.648Z,97035
2018-05-27T21:57:21.228Z,97042
2018-05-27T22:00:00.905Z,97047
2018-05-27T22:02:47.063Z,97045
2018-05-27T22:05:25.567Z,97047
2018-05-27T22:07:54.110Z,97048
2018-05-27T22:10:25.846Z,97042
2018-05-27T22:12:59.623Z,97043
2018-05-27T22:15:30.564Z,97040
2018-05-27T22:18:03.771Z,97038
2018-05-27T22:20:37.235Z,97032
2018-05-27T22:23:07.336Z,97034
2018-05-27T22:28:44.003Z,97035
2018-05-27T22:31:18.181Z,97030
2018-05-27T22:33:52.294Z,97028
2018-05-27T22:36:35.267Z,97031
2018-05-27T22:39:09.836Z,97035
2018-05-27T22:41:49.470Z,97036
2018-05-27T22:44:23.319Z,97041
2018-05-27T22:46:53.783Z,97046
2018-05-27T22:49:25.467Z,97052
2018-05-27T22:51:55.846Z,97051
2018-05-27T22:54:25.221Z,97052
2018-05-27T22:57:06.090Z,97052
2018-05-27T22:59:47.119Z,97049
2018-05-27T23:02:21.759Z,97053
2018-05-27T23:04:54.042Z,97052
2018-05-27T23:07:24.152Z,97046
2018-05-27T23:09:55.911Z,97044
2018-05-27T23:12:26.832Z,97048
2018-05-27T23:14:59.023Z,97042
2018-05-27T23:17:28.473Z,97051
2018-05-27T23:20:00.091Z,97055
2018-05-27T23:22:43.424Z,97052
2018-05-27T23:25:16.409Z,97046
2018-05-27T23:27:47.750Z,97047
2018-05-27T23:30:24.576Z,97047
2018-05-27T23:32:53.938Z,97050
2018-05-27T23:35:34.645Z,97048
2018-05-27T23:38:03.099Z,97044
2018-05-27T23:40:32.172Z,97049
2018-05-27T23:43:01.498Z,97049
2018-05-27T23:45:43.971Z,97044
2018-05-27T23:48:12.267Z,97035
2018-05-27T23:50:40.513Z,97035
2018-05-27T23:53:10.779Z,97027
2018-05-27T23:55:52.886Z,97027
2018-05-27T23:58:22.071Z,97031
